sensor_id;sensor_type;location;lat;lon;timestamp;temperature;humidity
45383;DHT22;42455;51.660;5.824;2023-03-01T00:00:37;1.6;71.5
45383;DHT22;42455;51.660;5.824;2023-03-01T00:05:44;1.5;72.0
45383;DHT22;42455;51.660;5.824;2023-03-01T00:10:59;1.5;72.0
45383;DHT22;42455;51.660;5.824;2023-03-01T00:15:56;1.5;72.5
45383;DHT22;42455;51.660;5.824;2023-03-01T00:21:02;1.5;72.5
45383;DHT22;42455;51.660;5.824;2023-03-01T00:26:12;1.4;72.5
45383;DHT22;42455;51.660;5.824;2023-03-01T00:31:17;1.4;73.0
45383;DHT22;42455;51.660;5.824;2023-03-01T00:36:21;1.4;73.0
45383;DHT22;42455;51.660;5.824;2023-03-01T00:41:27;1.5;73.5
45383;DHT22;42455;51.660;5.824;2023-03-01T00:46:33;1.5;73.5
45383;DHT22;42455;51.660;5.824;2023-03-01T00:51:39;1.6;73.0
45383;DHT22;42455;51.660;5.824;2023-03-01T00:56:45;1.6;73.0
45383;DHT22;42455;51.660;5.824;2023-03-01T01:01:52;1.5;73.0
45383;DHT22;42455;51.660;5.824;2023-03-01T01:06:58;1.5;73.0
45383;DHT22;42455;51.660;5.824;2023-03-01T01:12:05;1.5;73.0
45383;DHT22;42455;51.660;5.824;2023-03-01T01:17:10;1.4;73.0
45383;DHT22;42455;51.660;5.824;2023-03-01T01:22:17;1.4;73.0
45383;DHT22;42455;51.660;5.824;2023-03-01T01:27:23;1.3;73.0
45383;DHT22;42455;51.660;5.824;2023-03-01T01:32:29;1.3;73.0
45383;DHT22;42455;51.660;5.824;2023-03-01T01:37:35;1.2;73.5
45383;DHT22;42455;51.660;5.824;2023-03-01T01:42:41;1.2;73.5
45383;DHT22;42455;51.660;5.824;2023-03-01T01:47:47;1.2;73.5
45383;DHT22;42455;51.660;5.824;2023-03-01T01:52:54;1.2;73.5
45383;DHT22;42455;51.660;5.824;2023-03-01T01:58:05;1.1;73.5
45383;DHT22;42455;51.660;5.824;2023-03-01T02:03:10;1.0;73.5
45383;DHT22;42455;51.660;5.824;2023-03-01T02:08:12;1.0;73.5
45383;DHT22;42455;51.660;5.824;2023-03-01T02:13:17;0.9;73.5
45383;DHT22;42455;51.660;5.824;2023-03-01T02:18:25;0.9;74.0
45383;DHT22;42455;51.660;5.824;2023-03-01T02:23:29;0.9;74.0
45383;DHT22;42455;51.660;5.824;2023-03-01T02:28:36;0.8;74.0
45383;DHT22;42455;51.660;5.824;2023-03-01T02:33:45;0.8;74.0
45383;DHT22;42455;51.660;5.824;2023-03-01T02:38:50;0.8;74.0
45383;DHT22;42455;51.660;5.824;2023-03-01T02:43:55;0.8;74.5
45383;DHT22;42455;51.660;5.824;2023-03-01T02:49:00;0.7;74.5
45383;DHT22;42455;51.660;5.824;2023-03-01T02:54:24;0.7;74.5
45383;DHT22;42455;51.660;5.824;2023-03-01T02:59:13;0.7;74.5
45383;DHT22;42455;51.660;5.824;2023-03-01T03:04:19;0.7;74.5
45383;DHT22;42455;51.660;5.824;2023-03-01T03:09:26;0.7;75.0
45383;DHT22;42455;51.660;5.824;2023-03-01T03:14:31;0.7;75.0
45383;DHT22;42455;51.660;5.824;2023-03-01T03:19:37;0.7;75.0
45383;DHT22;42455;51.660;5.824;2023-03-01T03:24:44;0.7;75.5
45383;DHT22;42455;51.660;5.824;2023-03-01T03:29:50;0.7;75.5
45383;DHT22;42455;51.660;5.824;2023-03-01T03:34:56;0.8;75.5
45383;DHT22;42455;51.660;5.824;2023-03-01T03:40:03;0.8;75.5
45383;DHT22;42455;51.660;5.824;2023-03-01T03:45:08;0.8;75.5
45383;DHT22;42455;51.660;5.824;2023-03-01T03:50:15;0.8;76.0
45383;DHT22;42455;51.660;5.824;2023-03-01T03:55:19;0.8;76.0
45383;DHT22;42455;51.660;5.824;2023-03-01T04:00:25;0.8;76.0
45383;DHT22;42455;51.660;5.824;2023-03-01T04:05:31;0.8;76.0
45383;DHT22;42455;51.660;5.824;2023-03-01T04:10:39;0.8;76.0
45383;DHT22;42455;51.660;5.824;2023-03-01T04:15:44;0.8;76.0
45383;DHT22;42455;51.660;5.824;2023-03-01T04:20:50;0.8;76.0
45383;DHT22;42455;51.660;5.824;2023-03-01T04:25:58;0.8;76.0
45383;DHT22;42455;51.660;5.824;2023-03-01T04:31:06;0.8;76.0
45383;DHT22;42455;51.660;5.824;2023-03-01T04:36:11;0.8;76.0
45383;DHT22;42455;51.660;5.824;2023-03-01T04:41:16;0.8;76.0
45383;DHT22;42455;51.660;5.824;2023-03-01T04:46:21;0.8;76.0
45383;DHT22;42455;51.660;5.824;2023-03-01T04:51:27;0.8;76.0
45383;DHT22;42455;51.660;5.824;2023-03-01T04:56:34;0.8;76.5
45383;DHT22;42455;51.660;5.824;2023-03-01T05:01:40;0.7;76.0
45383;DHT22;42455;51.660;5.824;2023-03-01T05:06:46;0.7;76.5
45383;DHT22;42455;51.660;5.824;2023-03-01T05:11:52;0.7;76.5
45383;DHT22;42455;51.660;5.824;2023-03-01T05:16:58;0.7;76.5
45383;DHT22;42455;51.660;5.824;2023-03-01T05:22:04;0.6;76.5
45383;DHT22;42455;51.660;5.824;2023-03-01T05:27:11;0.6;77.0
45383;DHT22;42455;51.660;5.824;2023-03-01T05:32:17;0.7;76.5
45383;DHT22;42455;51.660;5.824;2023-03-01T05:37:23;0.7;77.0
45383;DHT22;42455;51.660;5.824;2023-03-01T05:42:28;0.7;77.0
45383;DHT22;42455;51.660;5.824;2023-03-01T05:47:34;0.7;76.5
45383;DHT22;42455;51.660;5.824;2023-03-01T05:52:41;0.7;76.5
45383;DHT22;42455;51.660;5.824;2023-03-01T05:57:47;0.7;76.5
45383;DHT22;42455;51.660;5.824;2023-03-01T06:02:54;0.6;77.0
45383;DHT22;42455;51.660;5.824;2023-03-01T06:08:00;0.6;77.0
45383;DHT22;42455;51.660;5.824;2023-03-01T06:13:06;0.6;77.0
45383;DHT22;42455;51.660;5.824;2023-03-01T06:18:12;0.6;77.0
45383;DHT22;42455;51.660;5.824;2023-03-01T06:23:18;0.5;77.0
45383;DHT22;42455;51.660;5.824;2023-03-01T06:28:24;0.5;77.0
45383;DHT22;42455;51.660;5.824;2023-03-01T06:33:30;0.5;77.0
45383;DHT22;42455;51.660;5.824;2023-03-01T06:38:37;0.5;77.0
45383;DHT22;42455;51.660;5.824;2023-03-01T06:43:43;0.5;77.5
45383;DHT22;42455;51.660;5.824;2023-03-01T06:48:49;0.5;77.5
45383;DHT22;42455;51.660;5.824;2023-03-01T06:53:55;0.5;77.5
45383;DHT22;42455;51.660;5.824;2023-03-01T06:59:02;0.5;77.5
45383;DHT22;42455;51.660;5.824;2023-03-01T07:04:08;0.5;77.5
45383;DHT22;42455;51.660;5.824;2023-03-01T07:09:14;0.5;78.0
45383;DHT22;42455;51.660;5.824;2023-03-01T07:14:20;0.6;78.0
45383;DHT22;42455;51.660;5.824;2023-03-01T07:19:26;0.6;78.0
45383;DHT22;42455;51.660;5.824;2023-03-01T07:24:32;0.7;78.5
45383;DHT22;42455;51.660;5.824;2023-03-01T07:29:38;0.8;78.5
45383;DHT22;42455;51.660;5.824;2023-03-01T07:34:44;0.9;78.5
45383;DHT22;42455;51.660;5.824;2023-03-01T07:39:49;1.0;79.0
45383;DHT22;42455;51.660;5.824;2023-03-01T07:44:55;1.1;79.0
45383;DHT22;42455;51.660;5.824;2023-03-01T07:50:02;1.2;79.0
45383;DHT22;42455;51.660;5.824;2023-03-01T07:55:08;1.3;79.0
45383;DHT22;42455;51.660;5.824;2023-03-01T08:00:14;1.5;79.0
45383;DHT22;42455;51.660;5.824;2023-03-01T08:05:20;1.6;79.5
45383;DHT22;42455;51.660;5.824;2023-03-01T08:10:26;1.7;79.5
45383;DHT22;42455;51.660;5.824;2023-03-01T08:15:32;1.8;79.5
45383;DHT22;42455;51.660;5.824;2023-03-01T08:20:39;1.9;79.5
45383;DHT22;42455;51.660;5.824;2023-03-01T08:25:45;2.0;79.5
45383;DHT22;42455;51.660;5.824;2023-03-01T08:30:51;2.2;80.0
45383;DHT22;42455;51.660;5.824;2023-03-01T08:36:01;2.4;80.0
45383;DHT22;42455;51.660;5.824;2023-03-01T08:41:04;2.5;80.0
45383;DHT22;42455;51.660;5.824;2023-03-01T08:46:10;2.7;80.5
45383;DHT22;42455;51.660;5.824;2023-03-01T08:51:20;2.9;80.5
45383;DHT22;42455;51.660;5.824;2023-03-01T08:56:22;3.1;80.5
45383;DHT22;42455;51.660;5.824;2023-03-01T09:01:29;3.4;80.5
45383;DHT22;42455;51.660;5.824;2023-03-01T09:06:35;3.6;80.5
45383;DHT22;42455;51.660;5.824;2023-03-01T09:11:41;3.8;80.0
45383;DHT22;42455;51.660;5.824;2023-03-01T09:16:47;4.1;80.0
45383;DHT22;42455;51.660;5.824;2023-03-01T09:21:53;4.3;79.5
45383;DHT22;42455;51.660;5.824;2023-03-01T09:26:59;4.5;79.5
45383;DHT22;42455;51.660;5.824;2023-03-01T09:32:05;4.7;79.0
45383;DHT22;42455;51.660;5.824;2023-03-01T09:37:10;4.9;78.5
45383;DHT22;42455;51.660;5.824;2023-03-01T09:42:16;5.1;78.0
45383;DHT22;42455;51.660;5.824;2023-03-01T09:47:26;5.3;78.0
45383;DHT22;42455;51.660;5.824;2023-03-01T09:52:36;5.5;77.0
45383;DHT22;42455;51.660;5.824;2023-03-01T09:57:49;5.7;76.0
45383;DHT22;42455;51.660;5.824;2023-03-01T10:02:44;5.8;75.5
45383;DHT22;42455;51.660;5.824;2023-03-01T10:08:25;5.9;75.5
45383;DHT22;42455;51.660;5.824;2023-03-01T10:12:53;6.0;75.0
45383;DHT22;42455;51.660;5.824;2023-03-01T10:18:18;6.2;75.0
45383;DHT22;42455;51.660;5.824;2023-03-01T10:23:04;6.3;74.5
45383;DHT22;42455;51.660;5.824;2023-03-01T10:28:31;6.4;74.0
45383;DHT22;42455;51.660;5.824;2023-03-01T10:33:31;6.5;74.0
45383;DHT22;42455;51.660;5.824;2023-03-01T10:38:22;6.6;73.5
45383;DHT22;42455;51.660;5.824;2023-03-01T10:43:47;6.7;73.5
45383;DHT22;42455;51.660;5.824;2023-03-01T10:48:35;6.9;73.0
45383;DHT22;42455;51.660;5.824;2023-03-01T10:53:48;7.0;73.0
45383;DHT22;42455;51.660;5.824;2023-03-01T10:59:00;7.1;72.0
45383;DHT22;42455;51.660;5.824;2023-03-01T11:04:14;7.1;71.5
45383;DHT22;42455;51.660;5.824;2023-03-01T11:09:13;7.2;71.5
45383;DHT22;42455;51.660;5.824;2023-03-01T11:14:07;7.3;71.5
45383;DHT22;42455;51.660;5.824;2023-03-01T11:19:19;7.5;71.0
45383;DHT22;42455;51.660;5.824;2023-03-01T11:24:19;7.6;71.0
45383;DHT22;42455;51.660;5.824;2023-03-01T11:29:37;7.7;71.0
45383;DHT22;42455;51.660;5.824;2023-03-01T11:34:45;7.8;70.5
45383;DHT22;42455;51.660;5.824;2023-03-01T11:39:51;7.9;70.0
45383;DHT22;42455;51.660;5.824;2023-03-01T11:44:48;7.9;70.0
45383;DHT22;42455;51.660;5.824;2023-03-01T11:50:50;8.0;69.0
45383;DHT22;42455;51.660;5.824;2023-03-01T11:56:03;8.1;69.0
45383;DHT22;42455;51.660;5.824;2023-03-01T12:01:44;8.2;69.0
45383;DHT22;42455;51.660;5.824;2023-03-01T12:07:25;8.3;69.0
45383;DHT22;42455;51.660;5.824;2023-03-01T12:12:57;8.4;69.0
45383;DHT22;42455;51.660;5.824;2023-03-01T12:19:18;8.5;68.5
45383;DHT22;42455;51.660;5.824;2023-03-01T12:25:18;8.5;68.0
45383;DHT22;42455;51.660;5.824;2023-03-01T12:30:57;8.6;68.5
45383;DHT22;42455;51.660;5.824;2023-03-01T12:36:15;8.8;68.5
45383;DHT22;42455;51.660;5.824;2023-03-01T12:42:04;8.9;67.0
45383;DHT22;42455;51.660;5.824;2023-03-01T12:48:05;8.9;66.5
45383;DHT22;42455;51.660;5.824;2023-03-01T12:51:40;9.0;66.5
45383;DHT22;42455;51.660;5.824;2023-03-01T12:52:59;9.1;66.5
45383;DHT22;42455;51.660;5.824;2023-03-01T12:56:12;9.2;66.0
45383;DHT22;42455;51.660;5.824;2023-03-01T13:01:36;9.3;66.5
45383;DHT22;42455;51.660;5.824;2023-03-01T13:06:58;9.4;66.0
45383;DHT22;42455;51.660;5.824;2023-03-01T13:11:28;9.5;66.0
45383;DHT22;42455;51.660;5.824;2023-03-01T13:16:43;9.6;65.5
45383;DHT22;42455;51.660;5.824;2023-03-01T13:21:39;9.7;65.5
45383;DHT22;42455;51.660;5.824;2023-03-01T13:27:10;9.7;65.0
45383;DHT22;42455;51.660;5.824;2023-03-01T13:32:00;9.8;65.0
45383;DHT22;42455;51.660;5.824;2023-03-01T13:37:08;9.9;65.0
45383;DHT22;42455;51.660;5.824;2023-03-01T13:42:03;10.0;64.0
45383;DHT22;42455;51.660;5.824;2023-03-01T13:47:18;10.0;63.5
45383;DHT22;42455;51.660;5.824;2023-03-01T13:52:38;10.1;63.5
45383;DHT22;42455;51.660;5.824;2023-03-01T13:57:28;10.1;63.5
45383;DHT22;42455;51.660;5.824;2023-03-01T14:02:28;10.1;63.5
45383;DHT22;42455;51.660;5.824;2023-03-01T14:07:34;10.2;63.0
45383;DHT22;42455;51.660;5.824;2023-03-01T14:13:17;10.2;63.0
45383;DHT22;42455;51.660;5.824;2023-03-01T14:18:04;10.3;62.5
45383;DHT22;42455;51.660;5.824;2023-03-01T14:22:54;10.3;62.0
45383;DHT22;42455;51.660;5.824;2023-03-01T14:28:02;10.3;62.5
45383;DHT22;42455;51.660;5.824;2023-03-01T14:33:16;10.3;61.5
45383;DHT22;42455;51.660;5.824;2023-03-01T14:38:21;10.3;61.5
45383;DHT22;42455;51.660;5.824;2023-03-01T14:43:25;10.4;61.5
45383;DHT22;42455;51.660;5.824;2023-03-01T14:48:24;10.4;61.5
45383;DHT22;42455;51.660;5.824;2023-03-01T14:53:30;10.4;61.0
45383;DHT22;42455;51.660;5.824;2023-03-01T14:58:36;10.4;60.5
45383;DHT22;42455;51.660;5.824;2023-03-01T15:03:44;10.4;61.0
45383;DHT22;42455;51.660;5.824;2023-03-01T15:08:54;10.4;61.0
45383;DHT22;42455;51.660;5.824;2023-03-01T15:13:55;10.4;60.5
45383;DHT22;42455;51.660;5.824;2023-03-01T15:19:02;10.4;60.0
45383;DHT22;42455;51.660;5.824;2023-03-01T15:24:08;10.3;60.0
45383;DHT22;42455;51.660;5.824;2023-03-01T15:29:20;10.3;60.0
45383;DHT22;42455;51.660;5.824;2023-03-01T15:34:23;10.2;60.5
45383;DHT22;42455;51.660;5.824;2023-03-01T15:39:35;10.3;60.5
45383;DHT22;42455;51.660;5.824;2023-03-01T15:44:31;10.2;60.0
45383;DHT22;42455;51.660;5.824;2023-03-01T15:49:43;10.2;60.0
45383;DHT22;42455;51.660;5.824;2023-03-01T15:54:43;10.2;60.0
45383;DHT22;42455;51.660;5.824;2023-03-01T15:59:49;10.1;60.0
45383;DHT22;42455;51.660;5.824;2023-03-01T16:04:55;10.1;60.0
45383;DHT22;42455;51.660;5.824;2023-03-01T16:10:01;10.0;59.5
45383;DHT22;42455;51.660;5.824;2023-03-01T16:15:13;9.9;59.5
45383;DHT22;42455;51.660;5.824;2023-03-01T16:20:14;9.8;59.5
45383;DHT22;42455;51.660;5.824;2023-03-01T16:25:20;9.7;59.5
45383;DHT22;42455;51.660;5.824;2023-03-01T16:30:26;9.5;60.0
45383;DHT22;42455;51.660;5.824;2023-03-01T16:35:32;9.4;59.5
45383;DHT22;42455;51.660;5.824;2023-03-01T16:40:38;9.3;59.0
45383;DHT22;42455;51.660;5.824;2023-03-01T16:45:44;9.1;59.5
45383;DHT22;42455;51.660;5.824;2023-03-01T16:50:59;9.0;59.5
45383;DHT22;42455;51.660;5.824;2023-03-01T16:55:58;8.8;60.0
45383;DHT22;42455;51.660;5.824;2023-03-01T17:01:06;8.7;60.0
45383;DHT22;42455;51.660;5.824;2023-03-01T17:06:11;8.5;60.5
45383;DHT22;42455;51.660;5.824;2023-03-01T17:11:18;8.4;60.5
45383;DHT22;42455;51.660;5.824;2023-03-01T17:16:22;8.2;61.0
45383;DHT22;42455;51.660;5.824;2023-03-01T17:21:27;8.1;61.0
45383;DHT22;42455;51.660;5.824;2023-03-01T17:26:33;8.0;61.0
45383;DHT22;42455;51.660;5.824;2023-03-01T17:31:39;7.8;61.5
45383;DHT22;42455;51.660;5.824;2023-03-01T17:36:46;7.7;61.5
45383;DHT22;42455;51.660;5.824;2023-03-01T17:41:52;7.5;61.5
45383;DHT22;42455;51.660;5.824;2023-03-01T17:46:58;7.4;62.0
45383;DHT22;42455;51.660;5.824;2023-03-01T17:52:04;7.3;62.0
45383;DHT22;42455;51.660;5.824;2023-03-01T17:57:10;7.1;62.5
45383;DHT22;42455;51.660;5.824;2023-03-01T18:02:17;7.0;62.5
45383;DHT22;42455;51.660;5.824;2023-03-01T18:07:24;6.9;62.5
45383;DHT22;42455;51.660;5.824;2023-03-01T18:12:30;6.8;62.5
45383;DHT22;42455;51.660;5.824;2023-03-01T18:17:35;6.6;62.5
45383;DHT22;42455;51.660;5.824;2023-03-01T18:22:42;6.5;63.0
45383;DHT22;42455;51.660;5.824;2023-03-01T18:27:48;6.4;63.0
45383;DHT22;42455;51.660;5.824;2023-03-01T18:32:54;6.3;63.5
45383;DHT22;42455;51.660;5.824;2023-03-01T18:38:00;6.2;63.5
45383;DHT22;42455;51.660;5.824;2023-03-01T18:43:06;6.2;64.0
45383;DHT22;42455;51.660;5.824;2023-03-01T18:48:13;6.0;64.0
45383;DHT22;42455;51.660;5.824;2023-03-01T18:53:19;6.0;64.0
45383;DHT22;42455;51.660;5.824;2023-03-01T18:58:25;5.9;64.5
45383;DHT22;42455;51.660;5.824;2023-03-01T19:03:30;5.8;65.0
45383;DHT22;42455;51.660;5.824;2023-03-01T19:08:36;5.8;65.0
45383;DHT22;42455;51.660;5.824;2023-03-01T19:13:43;5.8;65.0
45383;DHT22;42455;51.660;5.824;2023-03-01T19:18:48;5.7;65.0
45383;DHT22;42455;51.660;5.824;2023-03-01T19:29:00;5.6;65.5
45383;DHT22;42455;51.660;5.824;2023-03-01T19:34:06;5.5;65.5
45383;DHT22;42455;51.660;5.824;2023-03-01T19:39:13;5.4;65.5
45383;DHT22;42455;51.660;5.824;2023-03-01T19:44:19;5.3;66.0
45383;DHT22;42455;51.660;5.824;2023-03-01T19:49:25;5.2;66.0
45383;DHT22;42455;51.660;5.824;2023-03-01T19:54:31;5.1;66.0
45383;DHT22;42455;51.660;5.824;2023-03-01T19:59:37;5.0;66.5
45383;DHT22;42455;51.660;5.824;2023-03-01T20:04:44;5.0;66.5
45383;DHT22;42455;51.660;5.824;2023-03-01T20:09:50;4.9;67.0
45383;DHT22;42455;51.660;5.824;2023-03-01T20:14:56;4.9;67.0
45383;DHT22;42455;51.660;5.824;2023-03-01T20:20:02;4.9;67.0
45383;DHT22;42455;51.660;5.824;2023-03-01T20:25:09;4.9;67.5
45383;DHT22;42455;51.660;5.824;2023-03-01T20:30:15;4.8;67.5
45383;DHT22;42455;51.660;5.824;2023-03-01T20:35:21;4.8;67.5
45383;DHT22;42455;51.660;5.824;2023-03-01T20:40:27;4.8;68.0
45383;DHT22;42455;51.660;5.824;2023-03-01T20:45:36;4.7;68.0
45383;DHT22;42455;51.660;5.824;2023-03-01T20:50:40;4.7;68.0
45383;DHT22;42455;51.660;5.824;2023-03-01T20:55:46;4.7;68.0
45383;DHT22;42455;51.660;5.824;2023-03-01T21:00:52;4.7;68.0
45383;DHT22;42455;51.660;5.824;2023-03-01T21:05:58;4.6;68.0
45383;DHT22;42455;51.660;5.824;2023-03-01T21:11:04;4.5;68.0
45383;DHT22;42455;51.660;5.824;2023-03-01T21:16:11;4.5;68.0
45383;DHT22;42455;51.660;5.824;2023-03-01T21:21:21;4.4;68.5
45383;DHT22;42455;51.660;5.824;2023-03-01T21:26:21;4.3;68.5
45383;DHT22;42455;51.660;5.824;2023-03-01T21:31:30;4.3;69.0
45383;DHT22;42455;51.660;5.824;2023-03-01T21:36:34;4.3;69.0
45383;DHT22;42455;51.660;5.824;2023-03-01T21:41:39;4.3;69.0
45383;DHT22;42455;51.660;5.824;2023-03-01T21:46:48;4.3;69.0
45383;DHT22;42455;51.660;5.824;2023-03-01T21:51:51;4.2;69.0
45383;DHT22;42455;51.660;5.824;2023-03-01T21:56:57;4.2;69.0
45383;DHT22;42455;51.660;5.824;2023-03-01T22:02:04;4.1;69.0
45383;DHT22;42455;51.660;5.824;2023-03-01T22:07:10;4.1;69.5
45383;DHT22;42455;51.660;5.824;2023-03-01T22:12:16;4.1;69.5
45383;DHT22;42455;51.660;5.824;2023-03-01T22:17:22;4.0;69.5
45383;DHT22;42455;51.660;5.824;2023-03-01T22:22:28;4.0;70.0
45383;DHT22;42455;51.660;5.824;2023-03-01T22:27:35;4.0;70.0
45383;DHT22;42455;51.660;5.824;2023-03-01T22:32:41;3.9;70.0
45383;DHT22;42455;51.660;5.824;2023-03-01T22:37:47;3.9;70.0
45383;DHT22;42455;51.660;5.824;2023-03-01T22:42:53;3.9;70.0
45383;DHT22;42455;51.660;5.824;2023-03-01T22:48:00;3.8;70.0
45383;DHT22;42455;51.660;5.824;2023-03-01T22:53:06;3.8;70.0
45383;DHT22;42455;51.660;5.824;2023-03-01T22:58:12;3.7;70.0
45383;DHT22;42455;51.660;5.824;2023-03-01T23:03:18;3.7;70.5
45383;DHT22;42455;51.660;5.824;2023-03-01T23:08:24;3.7;70.5
45383;DHT22;42455;51.660;5.824;2023-03-01T23:13:29;3.6;70.0
45383;DHT22;42455;51.660;5.824;2023-03-01T23:18:36;3.6;70.0
45383;DHT22;42455;51.660;5.824;2023-03-01T23:23:43;3.5;70.5
45383;DHT22;42455;51.660;5.824;2023-03-01T23:28:48;3.4;70.5
45383;DHT22;42455;51.660;5.824;2023-03-01T23:33:53;3.4;70.5
45383;DHT22;42455;51.660;5.824;2023-03-01T23:39:01;3.3;70.5
45383;DHT22;42455;51.660;5.824;2023-03-01T23:44:06;3.3;70.5
45383;DHT22;42455;51.660;5.824;2023-03-01T23:49:15;3.2;71.0
45383;DHT22;42455;51.660;5.824;2023-03-01T23:54:20;3.2;71.5
45383;DHT22;42455;51.660;5.824;2023-03-01T23:59:24;3.2;71.5
